CES0649 ZULS-ZSPD
Flight info
| Callsign | CES0649 |
|---|---|
| Flight time | 2h 33m |
| Altitude | 38100 |
| Route | LXA W500 DM W9 CZH B213 WHA R343 EKIMU |
| Aircraft | A306/M-SDE2E3GHIJ3J4J5LM1ORWXY/LB1 |
Departure
| Time | 2026-04-14 11:48 |
|---|---|
| Airport | Lhasa Gonggar International Airport (ZULS) |
Arrival
| Time | 2026-04-14 14:21 |
|---|---|
| Airport | Shanghai Pudong International Airport (ZSPD) |
| Time | Latitude | Longitude | Altitude | Speed | Heading |
|---|---|---|---|---|---|
| 2026-04-14 11:31 | 29.29393 | 90.89501 | 11929 ft | 0 kts | 180° |
| 2026-04-14 11:41 | 29.29400 | 90.89502 | 11929 ft | 1 kts | 210° |
| 2026-04-14 11:41 | 29.29413 | 90.89508 | 11928 ft | 2 kts | 175° |
| 2026-04-14 11:41 | 29.29428 | 90.89507 | 11928 ft | 2 kts | 179° |
| 2026-04-14 11:42 | 29.29443 | 90.89508 | 11928 ft | 2 kts | 198° |
| 2026-04-14 11:42 | 29.29456 | 90.89516 | 11927 ft | 2 kts | 220° |
| 2026-04-14 11:42 | 29.29466 | 90.89529 | 11927 ft | 2 kts | 242° |
| 2026-04-14 11:42 | 29.29471 | 90.89545 | 11927 ft | 2 kts | 264° |
| 2026-04-14 11:43 | 29.29471 | 90.89552 | 11927 ft | 1 kts | 269° |
| 2026-04-14 11:43 | 29.29471 | 90.89553 | 11927 ft | 0 kts | 269° |
| 2026-04-14 11:44 | 29.29472 | 90.89552 | 11927 ft | 0 kts | 273° |
| 2026-04-14 11:45 | 29.29475 | 90.89536 | 11927 ft | 4 kts | 289° |
| 2026-04-14 11:45 | 29.29499 | 90.89477 | 11927 ft | 12 kts | 289° |
| 2026-04-14 11:45 | 29.29513 | 90.89346 | 11927 ft | 20 kts | 269° |
| 2026-04-14 11:45 | 29.29528 | 90.89220 | 11929 ft | 13 kts | 305° |
| 2026-04-14 11:46 | 29.29616 | 90.89191 | 11928 ft | 13 kts | 7° |
| 2026-04-14 11:46 | 29.29707 | 90.89197 | 11927 ft | 12 kts | 359° |
| 2026-04-14 11:46 | 29.29776 | 90.89242 | 11927 ft | 12 kts | 68° |
| 2026-04-14 11:46 | 29.29781 | 90.89271 | 11927 ft | 0 kts | 86° |
| 2026-04-14 11:47 | 29.29782 | 90.89347 | 11927 ft | 31 kts | 92° |
| 2026-04-14 11:47 | 29.29787 | 90.89870 | 11924 ft | 100 kts | 89° |
| 2026-04-14 11:47 | 29.29803 | 90.90910 | 11921 ft | 162 kts | 89° |
| 2026-04-14 11:47 | 29.29829 | 90.92415 | 11917 ft | 212 kts | 89° |
| 2026-04-14 11:48 | 29.29886 | 90.94173 | 12101 ft | 227 kts | 87° |
| 2026-04-14 11:48 | 29.30037 | 90.95993 | 12408 ft | 231 kts | 83° |
| 2026-04-14 11:48 | 29.30100 | 90.97824 | 12454 ft | 233 kts | 93° |
| 2026-04-14 11:48 | 29.30009 | 90.99671 | 12490 ft | 231 kts | 96° |
| 2026-04-14 11:49 | 29.29876 | 91.01505 | 12424 ft | 234 kts | 95° |
| 2026-04-14 11:49 | 29.29790 | 91.03374 | 12414 ft | 233 kts | 94° |
| 2026-04-14 11:49 | 29.29742 | 91.05214 | 12410 ft | 231 kts | 92° |
| 2026-04-14 11:49 | 29.29712 | 91.07069 | 12417 ft | 232 kts | 92° |
| 2026-04-14 11:50 | 29.29688 | 91.08921 | 12402 ft | 233 kts | 92° |
| 2026-04-14 11:50 | 29.29668 | 91.10767 | 12409 ft | 234 kts | 92° |
| 2026-04-14 11:50 | 29.29651 | 91.12644 | 12453 ft | 240 kts | 92° |
| 2026-04-14 11:51 | 29.29636 | 91.16997 | 12535 ft | 309 kts | 91° |
| 2026-04-14 11:51 | 29.29634 | 91.19582 | 12806 ft | 334 kts | 91° |
| 2026-04-14 11:51 | 29.29627 | 91.22277 | 13266 ft | 334 kts | 91° |
| 2026-04-14 11:51 | 29.29623 | 91.24810 | 13670 ft | 307 kts | 91° |
| 2026-04-14 11:52 | 29.29379 | 91.27206 | 13793 ft | 306 kts | 106° |
| 2026-04-14 11:52 | 29.28783 | 91.29689 | 14044 ft | 334 kts | 105° |
| 2026-04-14 11:52 | 29.28300 | 91.32378 | 14407 ft | 359 kts | 100° |
| 2026-04-14 11:52 | 29.27967 | 91.35294 | 14806 ft | 383 kts | 97° |
| 2026-04-14 11:53 | 29.27725 | 91.38435 | 15223 ft | 406 kts | 95° |
| 2026-04-14 11:53 | 29.27527 | 91.41727 | 15608 ft | 424 kts | 94° |
| 2026-04-14 11:53 | 29.27332 | 91.45136 | 16029 ft | 433 kts | 94° |
| 2026-04-14 11:53 | 29.27136 | 91.48582 | 16569 ft | 439 kts | 94° |
| 2026-04-14 11:54 | 29.26933 | 91.52076 | 17165 ft | 440 kts | 94° |
| 2026-04-14 11:54 | 29.26724 | 91.55544 | 17731 ft | 443 kts | 94° |
| 2026-04-14 11:54 | 29.26508 | 91.59082 | 18230 ft | 448 kts | 94° |
| 2026-04-14 11:54 | 29.26294 | 91.62650 | 18726 ft | 453 kts | 93° |
| 2026-04-14 11:55 | 29.26080 | 91.66264 | 19265 ft | 457 kts | 94° |
| 2026-04-14 11:55 | 29.25869 | 91.69926 | 19776 ft | 461 kts | 93° |
| 2026-04-14 11:55 | 29.25652 | 91.73627 | 20187 ft | 468 kts | 93° |
| 2026-04-14 11:55 | 29.25460 | 91.77332 | 20711 ft | 472 kts | 91° |
| 2026-04-14 11:56 | 29.25345 | 91.81072 | 21290 ft | 474 kts | 90° |
| 2026-04-14 11:56 | 29.25266 | 91.84832 | 21706 ft | 481 kts | 90° |
| 2026-04-14 11:56 | 29.25190 | 91.88697 | 22076 ft | 491 kts | 90° |
| 2026-04-14 11:56 | 29.25100 | 91.92641 | 22919 ft | 499 kts | 89° |
| 2026-04-14 11:57 | 29.25003 | 91.96639 | 24030 ft | 502 kts | 89° |
| 2026-04-14 11:57 | 29.24903 | 92.00637 | 25043 ft | 508 kts | 89° |
| 2026-04-14 11:57 | 29.24809 | 92.04691 | 25865 ft | 514 kts | 90° |
| 2026-04-14 11:57 | 29.24715 | 92.08843 | 26567 ft | 522 kts | 90° |
| 2026-04-14 11:58 | 29.24605 | 92.13002 | 27280 ft | 527 kts | 90° |
| 2026-04-14 11:58 | 29.24481 | 92.17207 | 28025 ft | 531 kts | 91° |
| 2026-04-14 11:58 | 29.24360 | 92.21400 | 28938 ft | 533 kts | 91° |
| 2026-04-14 11:58 | 29.24243 | 92.25629 | 29943 ft | 530 kts | 91° |
| 2026-04-14 11:59 | 29.24134 | 92.29850 | 30898 ft | 527 kts | 90° |
| 2026-04-14 11:59 | 29.24022 | 92.34032 | 31793 ft | 524 kts | 91° |
| 2026-04-14 11:59 | 29.23911 | 92.38201 | 32610 ft | 520 kts | 90° |
| 2026-04-14 11:59 | 29.23797 | 92.42326 | 33330 ft | 516 kts | 91° |
| 2026-04-14 12:00 | 29.23689 | 92.46402 | 33882 ft | 513 kts | 91° |
| 2026-04-14 12:00 | 29.23575 | 92.50510 | 34203 ft | 514 kts | 90° |
| 2026-04-14 12:00 | 29.23456 | 92.54613 | 34396 ft | 519 kts | 91° |
| 2026-04-14 12:00 | 29.23494 | 92.58683 | 34576 ft | 518 kts | 80° |
| 2026-04-14 12:01 | 29.24482 | 92.62605 | 34890 ft | 507 kts | 60° |
| 2026-04-14 12:01 | 29.26328 | 92.65992 | 35237 ft | 497 kts | 49° |
| 2026-04-14 12:01 | 29.28393 | 92.69196 | 35341 ft | 503 kts | 49° |
| 2026-04-14 12:01 | 29.30326 | 92.72516 | 35528 ft | 508 kts | 54° |
| 2026-04-14 12:02 | 29.32133 | 92.76047 | 35658 ft | 513 kts | 56° |
| 2026-04-14 12:02 | 29.33830 | 92.79591 | 35656 ft | 515 kts | 57° |
| 2026-04-14 12:02 | 29.37292 | 92.86785 | 35652 ft | 515 kts | 56° |
| 2026-04-14 12:03 | 29.40860 | 92.93955 | 35655 ft | 516 kts | 57° |
| 2026-04-14 12:03 | 29.44388 | 93.01096 | 35659 ft | 518 kts | 57° |
| 2026-04-14 12:04 | 29.47905 | 93.08312 | 35670 ft | 519 kts | 56° |
| 2026-04-14 12:04 | 29.51446 | 93.15498 | 35661 ft | 518 kts | 56° |
| 2026-04-14 12:05 | 29.54977 | 93.22701 | 35663 ft | 516 kts | 56° |
| 2026-04-14 12:05 | 29.58507 | 93.29926 | 35674 ft | 519 kts | 57° |
| 2026-04-14 12:06 | 29.62018 | 93.37112 | 35668 ft | 521 kts | 56° |
| 2026-04-14 12:06 | 29.65552 | 93.44383 | 35667 ft | 522 kts | 56° |
| 2026-04-14 12:07 | 29.69121 | 93.51703 | 35676 ft | 522 kts | 57° |
| 2026-04-14 12:07 | 29.72631 | 93.58955 | 35654 ft | 521 kts | 56° |
| 2026-04-14 12:08 | 29.76163 | 93.66225 | 35641 ft | 522 kts | 57° |
| 2026-04-14 12:08 | 29.79658 | 93.73462 | 35606 ft | 521 kts | 57° |
| 2026-04-14 12:09 | 29.83197 | 93.80777 | 35577 ft | 521 kts | 57° |
| 2026-04-14 12:09 | 29.86698 | 93.88052 | 35600 ft | 520 kts | 56° |
| 2026-04-14 12:10 | 29.90023 | 93.95458 | 35615 ft | 522 kts | 66° |
| 2026-04-14 12:10 | 29.91637 | 94.03653 | 35632 ft | 531 kts | 78° |
| 2026-04-14 12:11 | 29.93042 | 94.11945 | 35605 ft | 528 kts | 75° |
| 2026-04-14 12:11 | 29.94717 | 94.20122 | 35571 ft | 528 kts | 74° |
| 2026-04-14 12:12 | 29.96353 | 94.28349 | 35546 ft | 527 kts | 75° |
| 2026-04-14 12:12 | 29.97958 | 94.36576 | 35558 ft | 528 kts | 75° |
| 2026-04-14 12:13 | 29.99579 | 94.44845 | 35539 ft | 530 kts | 75° |
| 2026-04-14 12:13 | 30.01194 | 94.53140 | 35544 ft | 530 kts | 75° |
| 2026-04-14 12:14 | 30.02003 | 94.57291 | 35769 ft | 527 kts | 75° |
| 2026-04-14 12:14 | 30.02791 | 94.61369 | 35679 ft | 526 kts | 75° |
| 2026-04-14 12:14 | 30.04382 | 94.69572 | 35593 ft | 526 kts | 75° |
| 2026-04-14 12:15 | 30.05963 | 94.77794 | 35527 ft | 524 kts | 76° |
| 2026-04-14 12:15 | 30.07537 | 94.85974 | 35492 ft | 526 kts | 75° |
| 2026-04-14 12:16 | 30.09123 | 94.94260 | 35493 ft | 528 kts | 76° |
| 2026-04-14 12:16 | 30.10689 | 95.02444 | 35492 ft | 526 kts | 75° |
| 2026-04-14 12:17 | 30.12331 | 95.10719 | 35491 ft | 526 kts | 75° |
| 2026-04-14 12:17 | 30.13969 | 95.18932 | 35518 ft | 527 kts | 75° |
| 2026-04-14 12:18 | 30.14788 | 95.23054 | 35283 ft | 528 kts | 75° |
| 2026-04-14 12:18 | 30.16036 | 95.29347 | 35440 ft | 528 kts | 75° |
| 2026-04-14 12:18 | 30.19028 | 95.44616 | 35506 ft | 531 kts | 75° |
| 2026-04-14 12:19 | 30.22039 | 95.59954 | 35558 ft | 535 kts | 75° |
| 2026-04-14 12:19 | 30.25052 | 95.75464 | 35549 ft | 537 kts | 76° |
| 2026-04-14 12:20 | 30.28035 | 95.90986 | 35553 ft | 537 kts | 76° |
| 2026-04-14 12:20 | 30.31033 | 96.06578 | 35594 ft | 539 kts | 76° |
| 2026-04-14 12:21 | 30.34143 | 96.22029 | 35604 ft | 538 kts | 74° |
| 2026-04-14 12:21 | 30.37253 | 96.37607 | 35629 ft | 538 kts | 75° |
| 2026-04-14 12:22 | 30.40321 | 96.53137 | 35638 ft | 538 kts | 74° |
| 2026-04-14 12:22 | 30.43378 | 96.68613 | 35635 ft | 537 kts | 75° |
| 2026-04-14 12:23 | 30.46379 | 96.84051 | 35634 ft | 535 kts | 75° |
| 2026-04-14 12:23 | 30.49373 | 96.99464 | 35633 ft | 534 kts | 75° |
| 2026-04-14 12:24 | 30.52331 | 97.14948 | 35627 ft | 533 kts | 78° |
| 2026-04-14 12:24 | 30.52591 | 97.22774 | 35670 ft | 532 kts | 97° |
| 2026-04-14 12:24 | 30.51145 | 97.30526 | 35667 ft | 533 kts | 105° |
| 2026-04-14 12:25 | 30.49274 | 97.46235 | 35641 ft | 535 kts | 91° |
| 2026-04-14 12:25 | 30.48335 | 97.62134 | 35627 ft | 535 kts | 96° |
| 2026-04-14 12:26 | 30.46929 | 97.76242 | 35587 ft | 536 kts | 95° |
| 2026-04-14 12:26 | 30.46031 | 97.87517 | 35598 ft | 535 kts | 96° |
| 2026-04-14 12:27 | 30.45037 | 97.98799 | 35584 ft | 536 kts | 96° |
| 2026-04-14 12:27 | 30.44043 | 98.09998 | 35574 ft | 536 kts | 96° |
| 2026-04-14 12:28 | 30.43060 | 98.21265 | 35548 ft | 536 kts | 96° |
| 2026-04-14 12:28 | 30.42587 | 98.26873 | 35742 ft | 535 kts | 95° |
| 2026-04-14 12:28 | 30.42150 | 98.32528 | 35691 ft | 533 kts | 95° |
| 2026-04-14 12:29 | 30.41301 | 98.43742 | 35619 ft | 530 kts | 95° |
| 2026-04-14 12:29 | 30.40413 | 98.54920 | 35588 ft | 530 kts | 95° |
| 2026-04-14 12:30 | 30.39526 | 98.66045 | 35559 ft | 530 kts | 95° |
| 2026-04-14 12:30 | 30.38638 | 98.77193 | 35538 ft | 528 kts | 95° |
| 2026-04-14 12:31 | 30.37723 | 98.88422 | 35492 ft | 528 kts | 95° |
| 2026-04-14 12:31 | 30.36803 | 98.99525 | 35492 ft | 528 kts | 95° |
| 2026-04-14 12:32 | 30.35884 | 99.10668 | 35525 ft | 528 kts | 95° |
| 2026-04-14 12:32 | 30.34961 | 99.21693 | 35561 ft | 527 kts | 95° |
| 2026-04-14 12:33 | 30.34019 | 99.32795 | 35565 ft | 525 kts | 95° |
| 2026-04-14 12:33 | 30.33077 | 99.43782 | 35580 ft | 525 kts | 95° |
| 2026-04-14 12:34 | 30.32129 | 99.54767 | 35597 ft | 524 kts | 96° |
| 2026-04-14 12:34 | 30.31169 | 99.65774 | 35623 ft | 522 kts | 96° |
| 2026-04-14 12:35 | 30.30201 | 99.76698 | 35593 ft | 522 kts | 96° |
| 2026-04-14 12:35 | 30.29234 | 99.87678 | 35617 ft | 521 kts | 96° |
| 2026-04-14 12:36 | 30.28233 | 99.98621 | 35644 ft | 520 kts | 96° |
| 2026-04-14 12:36 | 30.27316 | 100.09538 | 35642 ft | 519 kts | 94° |
| 2026-04-14 12:37 | 30.25629 | 100.33160 | 35612 ft | 520 kts | 95° |
| 2026-04-14 12:37 | 30.22507 | 100.72701 | 35544 ft | 522 kts | 96° |
| 2026-04-14 12:38 | 30.16899 | 101.41423 | 35495 ft | 526 kts | 96° |
| 2026-04-14 12:39 | 30.14697 | 101.66945 | 35506 ft | 526 kts | 97° |
| 2026-04-14 12:39 | 30.14461 | 101.75330 | 35460 ft | 523 kts | 78° |
| 2026-04-14 12:39 | 30.15633 | 101.79243 | 35507 ft | 518 kts | 61° |
| 2026-04-14 12:40 | 30.17375 | 101.82866 | 35242 ft | 518 kts | 57° |
| 2026-04-14 12:40 | 30.20655 | 101.90352 | 35323 ft | 524 kts | 65° |
| 2026-04-14 12:41 | 30.23418 | 101.98138 | 35425 ft | 527 kts | 65° |
| 2026-04-14 12:41 | 30.26239 | 102.05940 | 35431 ft | 528 kts | 64° |
| 2026-04-14 12:42 | 30.29780 | 102.15496 | 35469 ft | 528 kts | 65° |
| 2026-04-14 12:42 | 30.33860 | 102.26671 | 35439 ft | 527 kts | 65° |
| 2026-04-14 12:43 | 30.37916 | 102.37801 | 35683 ft | 526 kts | 65° |
| 2026-04-14 12:43 | 30.39960 | 102.43420 | 35569 ft | 527 kts | 65° |
| 2026-04-14 12:43 | 30.41961 | 102.48959 | 35519 ft | 525 kts | 66° |
| 2026-04-14 12:44 | 30.46000 | 102.60099 | 35460 ft | 523 kts | 66° |
| 2026-04-14 12:44 | 30.50006 | 102.71278 | 35410 ft | 525 kts | 67° |
| 2026-04-14 12:45 | 30.56025 | 102.88092 | 35392 ft | 525 kts | 66° |
| 2026-04-14 12:45 | 30.60049 | 102.99319 | 35398 ft | 522 kts | 66° |
| 2026-04-14 12:46 | 30.63931 | 103.10495 | 35392 ft | 524 kts | 68° |
| 2026-04-14 12:46 | 30.67757 | 103.21732 | 35389 ft | 524 kts | 67° |
| 2026-04-14 12:47 | 30.69279 | 103.27471 | 35339 ft | 523 kts | 82° |
| 2026-04-14 12:47 | 30.69307 | 103.33536 | 35355 ft | 519 kts | 101° |
| 2026-04-14 12:47 | 30.67922 | 103.39201 | 35423 ft | 513 kts | 112° |
| 2026-04-14 12:47 | 30.66467 | 103.44889 | 35297 ft | 519 kts | 104° |
| 2026-04-14 12:48 | 30.65533 | 103.56930 | 35210 ft | 526 kts | 95° |
| 2026-04-14 12:48 | 30.64358 | 103.76623 | 35065 ft | 525 kts | 97° |
| 2026-04-14 12:49 | 30.62973 | 103.98589 | 35039 ft | 528 kts | 96° |
| 2026-04-14 12:49 | 30.61578 | 104.20743 | 35038 ft | 528 kts | 96° |
| 2026-04-14 12:50 | 30.59775 | 104.48251 | 35049 ft | 530 kts | 96° |
| 2026-04-14 12:51 | 30.58629 | 104.65279 | 35061 ft | 533 kts | 96° |
| 2026-04-14 12:51 | 30.57455 | 104.82327 | 35024 ft | 531 kts | 97° |
| 2026-04-14 12:52 | 30.56260 | 104.99449 | 35047 ft | 534 kts | 97° |
| 2026-04-14 12:52 | 30.55035 | 105.16668 | 35037 ft | 534 kts | 96° |
| 2026-04-14 12:53 | 30.53797 | 105.33696 | 35044 ft | 536 kts | 96° |
| 2026-04-14 12:53 | 30.52528 | 105.50977 | 35041 ft | 538 kts | 96° |
| 2026-04-14 12:54 | 30.51205 | 105.68298 | 35033 ft | 539 kts | 97° |
| 2026-04-14 12:54 | 30.49903 | 105.85477 | 35015 ft | 540 kts | 97° |
| 2026-04-14 12:55 | 30.48544 | 106.02829 | 35013 ft | 542 kts | 96° |
| 2026-04-14 12:55 | 30.47178 | 106.20234 | 35031 ft | 543 kts | 97° |
| 2026-04-14 12:56 | 30.45771 | 106.37580 | 35033 ft | 543 kts | 97° |
| 2026-04-14 12:56 | 30.44345 | 106.54984 | 35044 ft | 544 kts | 97° |
| 2026-04-14 12:57 | 30.42908 | 106.72343 | 35022 ft | 541 kts | 97° |
| 2026-04-14 12:57 | 30.41425 | 106.89757 | 35037 ft | 542 kts | 98° |
| 2026-04-14 12:58 | 30.39947 | 107.07026 | 35065 ft | 542 kts | 98° |
| 2026-04-14 12:58 | 30.38418 | 107.24410 | 35065 ft | 543 kts | 98° |
| 2026-04-14 12:59 | 30.36887 | 107.41722 | 35082 ft | 545 kts | 98° |
| 2026-04-14 12:59 | 30.35309 | 107.59217 | 35078 ft | 546 kts | 98° |
| 2026-04-14 13:00 | 30.33723 | 107.76650 | 35062 ft | 546 kts | 98° |
| 2026-04-14 13:00 | 30.32093 | 107.94092 | 35067 ft | 548 kts | 98° |
| 2026-04-14 13:01 | 30.31012 | 108.05589 | 35071 ft | 550 kts | 98° |
| 2026-04-14 13:01 | 30.30190 | 108.14345 | 35070 ft | 549 kts | 98° |
| 2026-04-14 13:02 | 30.29350 | 108.23137 | 35082 ft | 551 kts | 98° |
| 2026-04-14 13:02 | 30.28513 | 108.31878 | 35111 ft | 550 kts | 98° |
| 2026-04-14 13:03 | 30.27662 | 108.40669 | 35126 ft | 550 kts | 98° |
| 2026-04-14 13:03 | 30.26800 | 108.49475 | 35136 ft | 550 kts | 98° |
| 2026-04-14 13:04 | 30.25936 | 108.58279 | 35156 ft | 550 kts | 98° |
| 2026-04-14 13:04 | 30.25079 | 108.67005 | 35145 ft | 551 kts | 99° |
| 2026-04-14 13:05 | 30.24201 | 108.75796 | 35119 ft | 551 kts | 99° |
| 2026-04-14 13:05 | 30.23315 | 108.84622 | 35105 ft | 552 kts | 99° |
| 2026-04-14 13:06 | 30.22580 | 108.93437 | 35101 ft | 552 kts | 90° |
| 2026-04-14 13:06 | 30.23092 | 108.97784 | 35142 ft | 552 kts | 75° |
| 2026-04-14 13:06 | 30.24234 | 109.02010 | 35161 ft | 551 kts | 69° |
| 2026-04-14 13:07 | 30.26741 | 109.10404 | 35134 ft | 553 kts | 71° |
| 2026-04-14 13:07 | 30.28803 | 109.18932 | 35141 ft | 555 kts | 74° |
| 2026-04-14 13:08 | 30.30842 | 109.27532 | 35142 ft | 553 kts | 73° |
| 2026-04-14 13:08 | 30.32949 | 109.36101 | 35144 ft | 554 kts | 72° |
| 2026-04-14 13:09 | 30.37156 | 109.53412 | 35163 ft | 554 kts | 72° |
| 2026-04-14 13:09 | 30.43007 | 109.89117 | 35110 ft | 554 kts | 85° |
| 2026-04-14 13:10 | 30.48701 | 110.24837 | 35250 ft | 557 kts | 78° |
| 2026-04-14 13:10 | 30.53054 | 110.60907 | 35174 ft | 555 kts | 79° |
| 2026-04-14 13:11 | 30.58432 | 110.96755 | 35171 ft | 557 kts | 84° |
| 2026-04-14 13:11 | 30.63421 | 111.32839 | 35128 ft | 559 kts | 80° |
| 2026-04-14 13:12 | 30.66582 | 111.69257 | 35123 ft | 558 kts | 91° |
| 2026-04-14 13:12 | 30.68335 | 112.05985 | 35094 ft | 560 kts | 84° |
| 2026-04-14 13:13 | 30.70712 | 112.42380 | 35107 ft | 560 kts | 88° |
| 2026-04-14 13:13 | 30.73353 | 112.79202 | 35056 ft | 561 kts | 88° |
| 2026-04-14 13:14 | 30.75397 | 113.15939 | 35100 ft | 561 kts | 87° |
| 2026-04-14 13:14 | 30.76115 | 113.52575 | 35108 ft | 560 kts | 91° |
| 2026-04-14 13:15 | 30.77365 | 113.89471 | 35007 ft | 560 kts | 91° |
| 2026-04-14 13:15 | 30.78389 | 114.26299 | 35070 ft | 563 kts | 83° |
| 2026-04-14 13:15 | 30.82724 | 114.43883 | 35257 ft | 560 kts | 64° |
| 2026-04-14 13:16 | 30.90949 | 114.59440 | 35240 ft | 553 kts | 48° |
| 2026-04-14 13:16 | 30.99706 | 114.74715 | 35024 ft | 558 kts | 63° |
| 2026-04-14 13:16 | 31.04635 | 114.92102 | 35087 ft | 559 kts | 82° |
| 2026-04-14 13:16 | 31.05591 | 115.10245 | 35388 ft | 553 kts | 91° |
| 2026-04-14 13:17 | 31.07747 | 115.28503 | 35063 ft | 554 kts | 72° |
| 2026-04-14 13:17 | 31.14052 | 115.44859 | 35058 ft | 551 kts | 54° |
| 2026-04-14 13:17 | 31.23891 | 115.58582 | 35479 ft | 541 kts | 41° |
| 2026-04-14 13:17 | 31.33520 | 115.72828 | 35102 ft | 548 kts | 58° |
| 2026-04-14 13:18 | 31.39323 | 115.89703 | 35053 ft | 553 kts | 78° |
| 2026-04-14 13:18 | 31.40680 | 116.07790 | 35150 ft | 548 kts | 97° |
| 2026-04-14 13:18 | 31.39381 | 116.25825 | 35075 ft | 551 kts | 94° |
| 2026-04-14 13:18 | 31.41186 | 116.43852 | 35254 ft | 556 kts | 75° |
| 2026-04-14 13:19 | 31.47302 | 116.60792 | 35169 ft | 554 kts | 55° |
| 2026-04-14 13:19 | 31.57198 | 116.74853 | 35164 ft | 544 kts | 36° |
| 2026-04-14 13:19 | 31.69065 | 116.86150 | 35076 ft | 543 kts | 36° |
| 2026-04-14 13:19 | 31.79142 | 116.99789 | 35184 ft | 554 kts | 54° |
| 2026-04-14 13:20 | 31.85627 | 117.16514 | 35083 ft | 559 kts | 75° |
| 2026-04-14 13:20 | 31.87757 | 117.34895 | 35155 ft | 554 kts | 94° |
| 2026-04-14 13:20 | 31.85377 | 117.52705 | 35186 ft | 542 kts | 114° |
| 2026-04-14 13:20 | 31.81152 | 117.63529 | 35187 ft | 520 kts | 134° |
| 2026-04-14 13:21 | 31.76151 | 117.70500 | 35157 ft | 509 kts | 142° |
| 2026-04-14 13:21 | 31.71466 | 117.77802 | 35063 ft | 528 kts | 127° |
| 2026-04-14 13:21 | 31.68365 | 117.85620 | 35064 ft | 544 kts | 114° |
| 2026-04-14 13:21 | 31.67753 | 117.90044 | 35119 ft | 556 kts | 94° |
| 2026-04-14 13:22 | 31.68245 | 117.94598 | 35083 ft | 562 kts | 74° |
| 2026-04-14 13:22 | 31.70928 | 118.03202 | 35067 ft | 565 kts | 74° |
| 2026-04-14 13:23 | 31.72061 | 118.12228 | 35068 ft | 562 kts | 95° |
| 2026-04-14 13:23 | 31.71165 | 118.21275 | 35083 ft | 559 kts | 102° |
| 2026-04-14 13:24 | 31.70290 | 118.31201 | 35075 ft | 561 kts | 98° |
| 2026-04-14 13:24 | 31.68965 | 118.51220 | 35085 ft | 562 kts | 99° |
| 2026-04-14 13:25 | 31.67979 | 118.64516 | 35097 ft | 563 kts | 98° |
| 2026-04-14 13:26 | 31.66019 | 118.91174 | 35067 ft | 565 kts | 99° |
| 2026-04-14 13:26 | 31.65009 | 119.04503 | 35065 ft | 564 kts | 99° |
| 2026-04-14 13:27 | 31.64288 | 119.17959 | 35073 ft | 567 kts | 96° |
| 2026-04-14 13:27 | 31.63749 | 119.31410 | 35074 ft | 566 kts | 97° |
| 2026-04-14 13:28 | 31.63118 | 119.44863 | 35080 ft | 566 kts | 97° |
| 2026-04-14 13:28 | 31.62462 | 119.58236 | 35093 ft | 566 kts | 97° |
| 2026-04-14 13:29 | 31.61977 | 119.71709 | 35034 ft | 571 kts | 89° |
| 2026-04-14 13:29 | 31.62504 | 119.77816 | 35155 ft | 566 kts | 93° |
| 2026-04-14 13:29 | 31.61978 | 119.82291 | 35157 ft | 547 kts | 114° |
| 2026-04-14 13:30 | 31.60410 | 119.86267 | 35094 ft | 523 kts | 134° |
| 2026-04-14 13:30 | 31.58013 | 119.89298 | 35127 ft | 493 kts | 153° |
| 2026-04-14 13:30 | 31.55140 | 119.91145 | 35098 ft | 453 kts | 174° |
| 2026-04-14 13:30 | 31.52209 | 119.91753 | 35108 ft | 407 kts | 191° |
| 2026-04-14 13:31 | 31.49519 | 119.91503 | 35082 ft | 373 kts | 202° |
| 2026-04-14 13:31 | 31.47118 | 119.90656 | 35078 ft | 353 kts | 213° |
| 2026-04-14 13:31 | 31.42475 | 119.88577 | 35080 ft | 373 kts | 201° |
| 2026-04-14 13:32 | 31.37424 | 119.87341 | 35060 ft | 359 kts | 214° |
| 2026-04-14 13:32 | 31.35433 | 119.85772 | 35093 ft | 342 kts | 231° |
| 2026-04-14 13:32 | 31.33978 | 119.83614 | 35113 ft | 337 kts | 240° |
| 2026-04-14 13:33 | 31.31570 | 119.78893 | 35078 ft | 336 kts | 246° |
| 2026-04-14 13:33 | 31.30116 | 119.73769 | 35088 ft | 336 kts | 260° |
| 2026-04-14 13:34 | 31.29810 | 119.65684 | 35066 ft | 328 kts | 268° |
| 2026-04-14 13:35 | 31.29670 | 119.60404 | 35062 ft | 326 kts | 261° |
| 2026-04-14 13:35 | 31.29140 | 119.55138 | 35066 ft | 326 kts | 259° |
| 2026-04-14 13:36 | 31.28492 | 119.49893 | 35061 ft | 324 kts | 259° |
| 2026-04-14 13:36 | 31.28169 | 119.44634 | 35061 ft | 330 kts | 269° |
| 2026-04-14 13:37 | 31.28878 | 119.39293 | 35065 ft | 339 kts | 281° |
| 2026-04-14 13:37 | 31.30767 | 119.34193 | 35073 ft | 350 kts | 290° |
| 2026-04-14 13:37 | 31.32292 | 119.31880 | 35102 ft | 370 kts | 304° |
| 2026-04-14 13:38 | 31.34317 | 119.29921 | 35117 ft | 380 kts | 309° |
| 2026-04-14 13:38 | 31.39081 | 119.26941 | 35144 ft | 425 kts | 339° |
| 2026-04-14 13:38 | 31.42132 | 119.26910 | 35149 ft | 445 kts | 350° |
| 2026-04-14 13:39 | 31.45195 | 119.26901 | 35119 ft | 438 kts | 347° |
| 2026-04-14 13:39 | 31.48282 | 119.27424 | 35128 ft | 467 kts | 9° |
| 2026-04-14 13:39 | 31.51215 | 119.29251 | 35151 ft | 495 kts | 31° |
| 2026-04-14 13:40 | 31.56035 | 119.35235 | 35097 ft | 509 kts | 49° |
| 2026-04-14 13:40 | 31.57786 | 119.38820 | 35114 ft | 515 kts | 66° |
| 2026-04-14 13:40 | 31.58793 | 119.42859 | 35144 ft | 516 kts | 79° |
| 2026-04-14 13:41 | 31.59864 | 119.51185 | 35113 ft | 516 kts | 84° |
| 2026-04-14 13:41 | 31.60951 | 119.59476 | 35112 ft | 516 kts | 83° |
| 2026-04-14 13:42 | 31.62105 | 119.67784 | 35103 ft | 516 kts | 83° |
| 2026-04-14 13:42 | 31.62193 | 119.75967 | 35111 ft | 498 kts | 113° |
| 2026-04-14 13:42 | 31.60900 | 119.79630 | 35119 ft | 483 kts | 129° |
| 2026-04-14 13:43 | 31.59019 | 119.82825 | 35113 ft | 462 kts | 141° |
| 2026-04-14 13:43 | 31.56770 | 119.85391 | 35089 ft | 443 kts | 154° |
| 2026-04-14 13:43 | 31.54245 | 119.87341 | 35101 ft | 428 kts | 165° |
| 2026-04-14 13:43 | 31.51597 | 119.88734 | 35081 ft | 411 kts | 174° |
| 2026-04-14 13:44 | 31.48861 | 119.89534 | 35093 ft | 395 kts | 185° |
| 2026-04-14 13:44 | 31.46188 | 119.89709 | 35092 ft | 381 kts | 194° |
| 2026-04-14 13:44 | 31.43584 | 119.89406 | 35083 ft | 366 kts | 203° |
| 2026-04-14 13:44 | 31.41234 | 119.88557 | 35088 ft | 351 kts | 213° |
| 2026-04-14 13:45 | 31.39110 | 119.87211 | 35092 ft | 341 kts | 221° |
| 2026-04-14 13:45 | 31.35633 | 119.83624 | 35079 ft | 330 kts | 234° |
| 2026-04-14 13:46 | 31.33007 | 119.79234 | 35088 ft | 329 kts | 243° |
| 2026-04-14 13:46 | 31.30696 | 119.74544 | 35078 ft | 336 kts | 250° |
| 2026-04-14 13:47 | 31.29540 | 119.69197 | 35080 ft | 344 kts | 254° |
| 2026-04-14 13:47 | 31.27981 | 119.63847 | 35074 ft | 354 kts | 250° |
| 2026-04-14 13:48 | 31.26097 | 119.58468 | 35068 ft | 363 kts | 249° |
| 2026-04-14 13:48 | 31.24116 | 119.53002 | 35066 ft | 371 kts | 249° |
| 2026-04-14 13:49 | 31.22274 | 119.47320 | 35058 ft | 378 kts | 252° |
| 2026-04-14 13:49 | 31.21255 | 119.41280 | 35046 ft | 384 kts | 266° |
| 2026-04-14 13:50 | 31.21993 | 119.35091 | 35040 ft | 395 kts | 281° |
| 2026-04-14 13:50 | 31.24507 | 119.29250 | 35109 ft | 412 kts | 295° |
| 2026-04-14 13:50 | 31.26375 | 119.26587 | 35090 ft | 424 kts | 303° |
| 2026-04-14 13:51 | 31.28618 | 119.24301 | 35100 ft | 435 kts | 311° |
| 2026-04-14 13:51 | 31.33900 | 119.20605 | 35083 ft | 468 kts | 331° |
| 2026-04-14 13:51 | 31.37174 | 119.20046 | 35112 ft | 496 kts | 350° |
| 2026-04-14 13:52 | 31.40671 | 119.20755 | 35122 ft | 524 kts | 10° |
| 2026-04-14 13:52 | 31.43963 | 119.22735 | 35129 ft | 547 kts | 29° |
| 2026-04-14 13:52 | 31.46730 | 119.25859 | 35135 ft | 560 kts | 49° |
| 2026-04-14 13:52 | 31.48653 | 119.29823 | 35103 ft | 559 kts | 68° |
| 2026-04-14 13:53 | 31.49549 | 119.34152 | 34873 ft | 543 kts | 88° |
| 2026-04-14 13:53 | 31.49362 | 119.38470 | 34661 ft | 519 kts | 104° |
| 2026-04-14 13:53 | 31.48792 | 119.42619 | 34409 ft | 510 kts | 101° |
| 2026-04-14 13:53 | 31.48656 | 119.46711 | 34178 ft | 506 kts | 90° |
| 2026-04-14 13:54 | 31.49026 | 119.50790 | 33946 ft | 506 kts | 82° |
| 2026-04-14 13:54 | 31.49642 | 119.54846 | 33716 ft | 513 kts | 80° |
| 2026-04-14 13:54 | 31.50278 | 119.59017 | 33493 ft | 515 kts | 81° |
| 2026-04-14 13:54 | 31.50824 | 119.63109 | 33261 ft | 512 kts | 83° |
| 2026-04-14 13:55 | 31.51312 | 119.67188 | 33030 ft | 508 kts | 84° |
| 2026-04-14 13:55 | 31.51789 | 119.71310 | 32769 ft | 504 kts | 83° |
| 2026-04-14 13:55 | 31.52975 | 119.81226 | 32201 ft | 499 kts | 84° |
| 2026-04-14 13:55 | 31.54639 | 119.95012 | 31539 ft | 488 kts | 83° |
| 2026-04-14 13:56 | 31.56165 | 120.08044 | 31050 ft | 476 kts | 84° |
| 2026-04-14 13:56 | 31.56862 | 120.13920 | 30705 ft | 466 kts | 83° |
| 2026-04-14 13:56 | 31.57526 | 120.19475 | 30372 ft | 457 kts | 83° |
| 2026-04-14 13:56 | 31.58171 | 120.24960 | 30024 ft | 449 kts | 83° |
| 2026-04-14 13:57 | 31.58805 | 120.30397 | 29702 ft | 440 kts | 84° |
| 2026-04-14 13:57 | 31.58827 | 120.35656 | 29376 ft | 427 kts | 104° |
| 2026-04-14 13:57 | 31.57362 | 120.40450 | 29094 ft | 414 kts | 124° |
| 2026-04-14 13:57 | 31.55167 | 120.44830 | 28768 ft | 406 kts | 135° |
| 2026-04-14 13:58 | 31.53023 | 120.47234 | 28084 ft | 387 kts | 161° |
| 2026-04-14 13:58 | 31.50713 | 120.48705 | 28217 ft | 378 kts | 153° |
| 2026-04-14 13:58 | 31.48883 | 120.51022 | 28297 ft | 405 kts | 127° |
| 2026-04-14 13:58 | 31.47869 | 120.54176 | 28363 ft | 425 kts | 102° |
| 2026-04-14 13:59 | 31.47908 | 120.57648 | 28431 ft | 432 kts | 78° |
| 2026-04-14 13:59 | 31.48865 | 120.67852 | 28486 ft | 430 kts | 105° |
| 2026-04-14 13:59 | 31.47296 | 120.73671 | 28573 ft | 418 kts | 121° |
| 2026-04-14 14:00 | 31.45610 | 120.77685 | 28532 ft | 420 kts | 123° |
| 2026-04-14 14:00 | 31.36043 | 121.08684 | 28518 ft | 429 kts | 112° |
| 2026-04-14 14:01 | 31.26748 | 121.37840 | 28560 ft | 437 kts | 103° |
| 2026-04-14 14:01 | 31.26675 | 121.41405 | 28627 ft | 444 kts | 89° |
| 2026-04-14 14:01 | 31.26476 | 121.44966 | 28463 ft | 430 kts | 110° |
| 2026-04-14 14:01 | 31.25314 | 121.48002 | 28272 ft | 399 kts | 135° |
| 2026-04-14 14:02 | 31.23405 | 121.50161 | 27942 ft | 364 kts | 159° |
| 2026-04-14 14:02 | 31.21230 | 121.51553 | 27586 ft | 353 kts | 163° |
| 2026-04-14 14:02 | 31.19092 | 121.52955 | 27126 ft | 357 kts | 159° |
| 2026-04-14 14:02 | 31.17017 | 121.54604 | 26805 ft | 358 kts | 153° |
| 2026-04-14 14:03 | 31.15114 | 121.56402 | 26589 ft | 352 kts | 150° |
| 2026-04-14 14:03 | 31.11629 | 121.60035 | 26414 ft | 330 kts | 149° |
| 2026-04-14 14:03 | 31.05680 | 121.66309 | 25252 ft | 314 kts | 150° |
| 2026-04-14 14:03 | 30.99983 | 121.72196 | 24057 ft | 298 kts | 149° |
| 2026-04-14 14:04 | 30.95541 | 121.76782 | 22853 ft | 284 kts | 149° |
| 2026-04-14 14:04 | 30.94125 | 121.78284 | 22362 ft | 265 kts | 149° |
| 2026-04-14 14:04 | 30.92807 | 121.79692 | 21848 ft | 249 kts | 149° |
| 2026-04-14 14:04 | 30.91558 | 121.81012 | 21286 ft | 239 kts | 150° |
| 2026-04-14 14:05 | 30.90352 | 121.82275 | 20707 ft | 232 kts | 150° |
| 2026-04-14 14:05 | 30.89164 | 121.83511 | 20156 ft | 225 kts | 150° |
| 2026-04-14 14:05 | 30.88007 | 121.84712 | 19591 ft | 220 kts | 151° |
| 2026-04-14 14:05 | 30.86880 | 121.85886 | 19037 ft | 216 kts | 150° |
| 2026-04-14 14:06 | 30.85788 | 121.87025 | 18501 ft | 212 kts | 150° |
| 2026-04-14 14:06 | 30.84694 | 121.88157 | 17952 ft | 208 kts | 151° |
| 2026-04-14 14:06 | 30.83623 | 121.89249 | 17397 ft | 206 kts | 151° |
| 2026-04-14 14:06 | 30.82464 | 121.90111 | 16796 ft | 186 kts | 178° |
| 2026-04-14 14:07 | 30.81304 | 121.90169 | 16226 ft | 156 kts | 212° |
| 2026-04-14 14:07 | 30.80503 | 121.89520 | 15673 ft | 134 kts | 242° |
| 2026-04-14 14:07 | 30.79729 | 121.88432 | 14991 ft | 133 kts | 235° |
| 2026-04-14 14:07 | 30.78674 | 121.87381 | 14187 ft | 138 kts | 229° |
| 2026-04-14 14:08 | 30.77531 | 121.86382 | 13413 ft | 138 kts | 228° |
| 2026-04-14 14:08 | 30.76385 | 121.85398 | 12633 ft | 139 kts | 227° |
| 2026-04-14 14:08 | 30.75224 | 121.84429 | 11861 ft | 139 kts | 226° |
| 2026-04-14 14:08 | 30.74051 | 121.83464 | 11076 ft | 140 kts | 225° |
| 2026-04-14 14:09 | 30.72858 | 121.82507 | 10277 ft | 142 kts | 224° |
| 2026-04-14 14:09 | 30.71672 | 121.81580 | 9642 ft | 131 kts | 235° |
| 2026-04-14 14:09 | 30.71220 | 121.80257 | 9012 ft | 131 kts | 296° |
| 2026-04-14 14:09 | 30.72298 | 121.79256 | 9036 ft | 143 kts | 328° |
| 2026-04-14 14:10 | 30.73403 | 121.77994 | 8750 ft | 164 kts | 299° |
| 2026-04-14 14:10 | 30.74707 | 121.76416 | 8400 ft | 197 kts | 321° |
| 2026-04-14 14:10 | 30.76791 | 121.75867 | 7934 ft | 219 kts | 359° |
| 2026-04-14 14:10 | 30.78850 | 121.76678 | 7554 ft | 204 kts | 23° |
| 2026-04-14 14:11 | 30.80460 | 121.78120 | 7130 ft | 188 kts | 38° |
| 2026-04-14 14:11 | 30.81785 | 121.79665 | 6709 ft | 172 kts | 41° |
| 2026-04-14 14:11 | 30.82549 | 121.81441 | 6254 ft | 165 kts | 83° |
| 2026-04-14 14:11 | 30.82358 | 121.83380 | 5886 ft | 163 kts | 110° |
| 2026-04-14 14:12 | 30.81448 | 121.84951 | 5525 ft | 157 kts | 139° |
| 2026-04-14 14:12 | 30.80420 | 121.86440 | 5142 ft | 159 kts | 116° |
| 2026-04-14 14:12 | 30.79543 | 121.88024 | 4760 ft | 155 kts | 139° |
| 2026-04-14 14:12 | 30.78168 | 121.88874 | 4393 ft | 149 kts | 174° |
| 2026-04-14 14:13 | 30.76686 | 121.88708 | 4017 ft | 142 kts | 208° |
| 2026-04-14 14:13 | 30.75598 | 121.87638 | 3641 ft | 137 kts | 244° |
| 2026-04-14 14:13 | 30.75275 | 121.86111 | 3268 ft | 132 kts | 279° |
| 2026-04-14 14:13 | 30.75803 | 121.84695 | 2886 ft | 128 kts | 315° |
| 2026-04-14 14:14 | 30.76937 | 121.83998 | 2514 ft | 126 kts | 351° |
| 2026-04-14 14:14 | 30.78218 | 121.84274 | 2167 ft | 131 kts | 27° |
| 2026-04-14 14:14 | 30.79460 | 121.85126 | 2172 ft | 149 kts | 22° |
| 2026-04-14 14:14 | 30.80979 | 121.85832 | 2107 ft | 165 kts | 17° |
| 2026-04-14 14:15 | 30.83176 | 121.86619 | 2040 ft | 172 kts | 13° |
| 2026-04-14 14:15 | 30.84370 | 121.86957 | 2018 ft | 175 kts | 11° |
| 2026-04-14 14:15 | 30.85567 | 121.87260 | 2000 ft | 176 kts | 10° |
| 2026-04-14 14:15 | 30.86771 | 121.87541 | 1986 ft | 176 kts | 9° |
| 2026-04-14 14:16 | 30.87978 | 121.87810 | 1973 ft | 176 kts | 9° |
| 2026-04-14 14:16 | 30.89201 | 121.88072 | 1974 ft | 177 kts | 8° |
| 2026-04-14 14:16 | 30.90408 | 121.88196 | 1940 ft | 167 kts | 352° |
| 2026-04-14 14:17 | 30.94945 | 121.87551 | 1960 ft | 152 kts | 352° |
| 2026-04-14 14:17 | 30.99484 | 121.86945 | 1968 ft | 149 kts | 352° |
| 2026-04-14 14:17 | 31.00556 | 121.86848 | 1973 ft | 150 kts | 357° |
| 2026-04-14 14:17 | 31.01602 | 121.86736 | 1968 ft | 151 kts | 350° |
| 2026-04-14 14:18 | 31.02644 | 121.86500 | 1969 ft | 151 kts | 347° |
| 2026-04-14 14:18 | 31.03657 | 121.86197 | 1910 ft | 155 kts | 344° |
| 2026-04-14 14:18 | 31.04689 | 121.85846 | 1689 ft | 152 kts | 343° |
| 2026-04-14 14:18 | 31.05698 | 121.85480 | 1489 ft | 150 kts | 342° |
| 2026-04-14 14:19 | 31.06693 | 121.85111 | 1286 ft | 150 kts | 342° |
| 2026-04-14 14:19 | 31.07690 | 121.84739 | 1084 ft | 149 kts | 342° |
| 2026-04-14 14:19 | 31.08671 | 121.84369 | 887 ft | 148 kts | 343° |
| 2026-04-14 14:19 | 31.09665 | 121.83997 | 687 ft | 149 kts | 343° |
| 2026-04-14 14:20 | 31.10645 | 121.83633 | 489 ft | 148 kts | 344° |
| 2026-04-14 14:20 | 31.11638 | 121.83260 | 291 ft | 148 kts | 342° |
| 2026-04-14 14:20 | 31.12617 | 121.82892 | 132 ft | 147 kts | 345° |
| 2026-04-14 14:20 | 31.13568 | 121.82530 | 27 ft | 132 kts | 343° |
| 2026-04-14 14:21 | 31.14200 | 121.82295 | 26 ft | 58 kts | 336° |
| 2026-04-14 14:21 | 31.14416 | 121.82122 | 25 ft | 31 kts | 314° |